createdAt,value
2023-05-16T00:00:53.332Z,1.20
2023-05-16T00:01:57.587Z,1.27
2023-05-16T00:03:01.170Z,1.30
2023-05-16T00:04:05.155Z,1.33
2023-05-16T00:05:10.992Z,1.50
2023-05-16T00:06:16.388Z,1.40
2023-05-16T00:07:19.382Z,1.48
2023-05-16T00:08:23.139Z,1.40
2023-05-16T00:09:26.277Z,1.30
2023-05-16T00:10:29.713Z,1.30
2023-05-16T00:11:33.658Z,1.40
2023-05-16T00:12:37.958Z,1.40
2023-05-16T00:13:42.524Z,1.48
2023-05-16T00:14:46.142Z,1.30
2023-05-16T00:15:48.744Z,1.50
2023-05-16T00:16:53.495Z,1.50
2023-05-16T00:17:58.854Z,1.48
2023-05-16T00:19:02.831Z,1.20
2023-05-16T00:20:08.093Z,1.50
2023-05-16T00:21:14.270Z,1.40
2023-05-16T00:22:18.478Z,1.40
2023-05-16T00:23:23.091Z,1.60
2023-05-16T00:24:25.973Z,1.80
2023-05-16T00:25:30.416Z,1.55
2023-05-16T00:26:33.122Z,1.48
2023-05-16T00:27:38.577Z,1.42
2023-05-16T00:28:41.595Z,1.60
2023-05-16T00:29:45.529Z,1.30
2023-05-16T00:30:48.576Z,1.38
2023-05-16T00:31:52.196Z,1.67
2023-05-16T00:32:56.310Z,1.55
2023-05-16T00:33:59.992Z,1.52
2023-05-16T00:35:02.864Z,1.60
2023-05-16T00:36:06.935Z,1.40
2023-05-16T00:37:11.114Z,1.67
2023-05-16T00:38:15.714Z,1.55
2023-05-16T00:39:18.516Z,1.80
2023-05-16T00:40:22.691Z,1.52
2023-05-16T00:41:26.430Z,1.60
2023-05-16T00:42:30.443Z,1.38
2023-05-16T00:43:34.658Z,1.63
2023-05-16T00:44:37.460Z,1.60
2023-05-16T00:45:41.323Z,1.35
2023-05-16T00:46:44.170Z,1.50
2023-05-16T00:47:47.899Z,1.23
2023-05-16T00:48:51.960Z,1.42
2023-05-16T00:49:55.602Z,1.70
2023-05-16T00:50:58.680Z,1.50
2023-05-16T00:52:02.959Z,1.55
2023-05-16T00:53:07.372Z,1.60
2023-05-16T00:54:13.436Z,1.70
2023-05-16T00:55:16.542Z,1.65
2023-05-16T00:56:20.237Z,1.70
2023-05-16T00:57:22.984Z,1.60
2023-05-16T00:58:26.980Z,1.52
2023-05-16T00:59:30.160Z,1.70
2023-05-16T01:00:36.385Z,1.80
2023-05-16T01:01:39.807Z,1.67
2023-05-16T01:02:44.011Z,1.45
2023-05-16T01:03:47.201Z,1.70
2023-05-16T01:04:51.961Z,2.15
2023-05-16T01:05:54.786Z,1.52
2023-05-16T01:06:58.738Z,1.52
2023-05-16T01:08:01.894Z,1.70
2023-05-16T01:09:08.630Z,1.60
2023-05-16T01:10:12.486Z,1.75
2023-05-16T01:11:24.550Z,1.63
2023-05-16T01:12:37.664Z,1.95
2023-05-16T01:13:50.981Z,1.58
2023-05-16T01:15:03.119Z,1.52
2023-05-16T01:16:15.102Z,1.42
2023-05-16T01:17:24.061Z,1.42
2023-05-16T01:18:39.402Z,1.30
2023-05-16T01:19:56.528Z,1.73
2023-05-16T01:21:04.188Z,1.50
2023-05-16T01:22:16.659Z,1.55
2023-05-16T01:23:34.815Z,1.50
2023-05-16T01:24:52.236Z,1.52
2023-05-16T01:26:00.157Z,1.30
2023-05-16T01:27:07.401Z,1.60
2023-05-16T01:28:11.261Z,1.67
2023-05-16T01:29:16.122Z,1.60
2023-05-16T01:30:20.006Z,1.30
2023-05-16T01:31:25.048Z,1.55
2023-05-16T01:32:28.847Z,1.50
2023-05-16T01:33:32.707Z,2.78
2023-05-16T01:34:35.599Z,1.70
2023-05-16T01:35:45.489Z,1.70
2023-05-16T01:36:58.565Z,1.52
2023-05-16T01:38:11.643Z,1.58
2023-05-16T01:39:20.346Z,1.60
2023-05-16T01:40:31.524Z,1.75
2023-05-16T01:41:42.460Z,1.50
2023-05-16T01:42:50.300Z,1.90
2023-05-16T01:43:59.274Z,1.60
2023-05-16T01:45:12.763Z,1.65
2023-05-16T01:46:19.407Z,1.42
2023-05-16T01:47:27.944Z,1.60
2023-05-16T01:48:36.282Z,1.58
2023-05-16T01:49:47.797Z,1.52
2023-05-16T01:50:55.759Z,1.50
2023-05-16T01:52:07.172Z,1.20
2023-05-16T01:53:18.206Z,1.45
2023-05-16T01:54:25.264Z,1.45
2023-05-16T01:55:44.160Z,1.40
2023-05-16T01:56:54.557Z,1.23
2023-05-16T01:58:00.998Z,1.15
2023-05-16T01:59:04.896Z,1.40
2023-05-16T02:00:10.400Z,1.48
2023-05-16T02:01:14.649Z,1.10
2023-05-16T02:02:21.444Z,1.15
2023-05-16T02:03:24.415Z,1.20
2023-05-16T02:04:28.349Z,1.38
2023-05-16T02:05:31.610Z,1.30
2023-05-16T02:06:35.435Z,1.20
2023-05-16T02:07:39.804Z,1.20
2023-05-16T02:08:43.992Z,1.00
2023-05-16T02:09:47.004Z,1.05
2023-05-16T02:10:50.603Z,1.40
2023-05-16T02:11:53.476Z,2.33
2023-05-16T02:12:57.400Z,2.63
2023-05-16T02:14:01.854Z,1.42
2023-05-16T02:15:06.795Z,1.20
2023-05-16T02:16:11.728Z,1.00
2023-05-16T02:17:15.819Z,1.10
2023-05-16T02:18:19.808Z,1.40
2023-05-16T02:19:24.084Z,0.95
2023-05-16T02:20:27.516Z,1.33
2023-05-16T02:21:31.660Z,0.90
2023-05-16T02:22:34.883Z,1.00
2023-05-16T02:23:39.627Z,0.90
2023-05-16T02:24:42.731Z,1.10
2023-05-16T02:25:46.688Z,0.90
2023-05-16T02:26:49.844Z,1.00
2023-05-16T02:27:53.834Z,1.05
2023-05-16T02:28:56.657Z,1.00
2023-05-16T02:30:01.861Z,1.13
2023-05-16T02:31:05.494Z,1.00
2023-05-16T02:32:09.551Z,0.90
2023-05-16T02:33:13.163Z,0.90
2023-05-16T02:34:17.074Z,0.80
2023-05-16T02:35:19.648Z,1.00
2023-05-16T02:36:23.566Z,0.80
2023-05-16T02:37:26.244Z,0.80
2023-05-16T02:38:31.359Z,0.98
2023-05-16T02:39:34.429Z,0.80
2023-05-16T02:40:38.305Z,0.82
2023-05-16T02:41:41.030Z,0.90
2023-05-16T02:42:44.647Z,0.90
2023-05-16T02:43:48.041Z,0.80
2023-05-16T02:44:52.483Z,0.80
2023-05-16T02:45:56.656Z,1.55
2023-05-16T02:47:00.251Z,0.80
2023-05-16T02:48:03.521Z,0.90
2023-05-16T02:49:08.040Z,0.80
2023-05-16T02:50:11.206Z,0.70
2023-05-16T02:51:15.038Z,0.80
2023-05-16T02:52:17.617Z,0.65
2023-05-16T02:53:21.383Z,0.80
2023-05-16T02:54:24.746Z,0.77
2023-05-16T02:55:28.768Z,0.70
2023-05-16T02:56:31.585Z,0.70
2023-05-16T02:57:35.725Z,0.70
2023-05-16T02:58:38.589Z,0.80
2023-05-16T02:59:43.190Z,0.75
2023-05-16T03:00:49.582Z,0.80
2023-05-16T03:02:00.777Z,0.80
2023-05-16T03:03:08.085Z,0.88
2023-05-16T03:04:19.369Z,0.80
2023-05-16T03:05:27.562Z,0.70
2023-05-16T03:06:33.746Z,0.80
2023-05-16T03:07:45.951Z,0.73
2023-05-16T03:08:56.783Z,0.80
2023-05-16T03:10:05.717Z,0.90
2023-05-16T03:11:16.158Z,0.73
2023-05-16T03:12:21.184Z,0.70
2023-05-16T03:13:30.732Z,0.93
2023-05-16T03:14:38.433Z,1.00
2023-05-16T03:15:44.400Z,0.93
2023-05-16T03:16:48.494Z,0.70
2023-05-16T03:17:53.044Z,0.77
2023-05-16T03:18:58.026Z,0.80
2023-05-16T03:20:01.382Z,0.70
2023-05-16T03:21:05.598Z,0.85
2023-05-16T03:22:08.571Z,0.90
2023-05-16T03:23:12.373Z,0.80
2023-05-16T03:24:15.847Z,0.70
2023-05-16T03:25:19.854Z,0.80
2023-05-16T03:26:23.694Z,0.80
2023-05-16T03:27:28.945Z,0.70
2023-05-16T03:28:32.004Z,0.70
2023-05-16T03:29:36.965Z,0.70
2023-05-16T03:30:39.579Z,0.70
2023-05-16T03:31:43.773Z,0.65
2023-05-16T03:32:46.836Z,0.77
2023-05-16T03:33:51.988Z,0.80
2023-05-16T03:34:54.736Z,0.80
2023-05-16T03:35:59.154Z,0.70
2023-05-16T03:37:02.868Z,0.73
2023-05-16T03:38:05.694Z,0.70
2023-05-16T03:39:09.955Z,0.68
2023-05-16T03:40:13.523Z,0.77
2023-05-16T03:41:17.420Z,0.63
2023-05-16T03:42:20.301Z,0.90
2023-05-16T03:43:24.015Z,0.65
2023-05-16T03:44:27.141Z,0.70
2023-05-16T03:45:31.550Z,0.77
2023-05-16T03:46:35.498Z,0.80
2023-05-16T03:47:39.413Z,0.70
2023-05-16T03:48:41.896Z,0.90
2023-05-16T03:49:46.905Z,0.60
2023-05-16T03:50:51.719Z,0.75
2023-05-16T03:51:56.088Z,0.60
2023-05-16T03:52:59.703Z,0.60
2023-05-16T03:54:04.178Z,0.73
2023-05-16T03:55:08.670Z,0.60
2023-05-16T03:56:12.975Z,0.60
2023-05-16T03:57:16.423Z,0.70
2023-05-16T03:58:20.938Z,0.70
2023-05-16T03:59:23.978Z,0.60
2023-05-16T04:00:28.360Z,0.80
2023-05-16T04:01:31.389Z,0.70
2023-05-16T04:02:35.550Z,0.70
2023-05-16T04:03:40.444Z,0.60
2023-05-16T04:04:43.854Z,0.60
2023-05-16T04:05:48.877Z,0.60
2023-05-16T04:06:52.218Z,0.70
2023-05-16T04:07:55.969Z,0.70
2023-05-16T04:08:59.188Z,0.70
2023-05-16T04:10:03.208Z,0.60
2023-05-16T04:11:06.608Z,0.90
2023-05-16T04:12:10.848Z,0.60
2023-05-16T04:13:15.668Z,0.65
2023-05-16T04:14:19.702Z,0.60
2023-05-16T04:15:22.609Z,0.80
2023-05-16T04:16:26.346Z,0.60
2023-05-16T04:17:29.661Z,0.60
2023-05-16T04:18:33.793Z,0.65
2023-05-16T04:19:36.904Z,0.60
2023-05-16T04:20:43.224Z,0.60
2023-05-16T04:21:47.368Z,0.60
2023-05-16T04:22:51.206Z,0.70
2023-05-16T04:23:54.435Z,0.70
2023-05-16T04:24:58.512Z,0.70
2023-05-16T04:26:04.798Z,0.60
2023-05-16T04:27:09.427Z,0.60
2023-05-16T04:28:13.804Z,0.60
2023-05-16T04:29:18.569Z,0.60
2023-05-16T04:30:22.399Z,0.60
2023-05-16T04:31:27.081Z,0.65
2023-05-16T04:32:31.156Z,0.60
2023-05-16T04:33:34.776Z,0.60
2023-05-16T04:34:40.493Z,0.70
2023-05-16T04:35:45.668Z,0.65
2023-05-16T04:36:53.321Z,0.70
2023-05-16T04:37:57.354Z,0.80
2023-05-16T04:39:01.082Z,0.60
2023-05-16T04:40:08.789Z,0.60
2023-05-16T04:41:13.582Z,0.68
2023-05-16T04:42:18.774Z,0.60
2023-05-16T04:43:21.672Z,0.60
2023-05-16T04:44:25.516Z,0.60
2023-05-16T04:45:29.454Z,0.60
2023-05-16T04:46:33.808Z,0.60
2023-05-16T04:47:37.358Z,0.50
2023-05-16T04:48:41.159Z,0.60
2023-05-16T04:49:44.392Z,0.68
2023-05-16T04:50:48.350Z,0.60
2023-05-16T04:51:52.618Z,0.60
2023-05-16T04:52:56.608Z,0.70
2023-05-16T04:54:00.140Z,0.65
2023-05-16T04:55:04.631Z,0.60
2023-05-16T04:56:08.343Z,0.60
2023-05-16T04:57:12.779Z,0.68
2023-05-16T04:58:16.118Z,0.60
2023-05-16T04:59:20.325Z,0.70
2023-05-16T05:00:23.712Z,0.60
2023-05-16T05:01:28.076Z,0.70
2023-05-16T05:02:30.622Z,0.70
2023-05-16T05:03:36.145Z,0.80
2023-05-16T05:04:39.617Z,0.70
2023-05-16T05:05:43.329Z,0.60
2023-05-16T05:06:46.934Z,0.70
2023-05-16T05:07:52.992Z,0.70
2023-05-16T05:08:56.069Z,0.65
2023-05-16T05:09:59.939Z,0.63
2023-05-16T05:11:03.208Z,0.80
2023-05-16T05:12:08.887Z,0.63
2023-05-16T05:13:11.966Z,0.70
2023-05-16T05:14:15.735Z,0.60
2023-05-16T05:15:19.534Z,0.70
2023-05-16T05:16:23.459Z,0.70
2023-05-16T05:17:27.226Z,0.70
2023-05-16T05:18:31.478Z,0.60
2023-05-16T05:19:35.294Z,0.60
2023-05-16T05:20:39.287Z,0.80
2023-05-16T05:21:42.384Z,0.65
2023-05-16T05:22:47.208Z,0.80
2023-05-16T05:23:51.694Z,0.70
2023-05-16T05:24:56.024Z,0.65
2023-05-16T05:25:59.177Z,0.60
2023-05-16T05:27:03.579Z,0.70
2023-05-16T05:28:07.783Z,0.65
2023-05-16T05:29:11.313Z,0.60
2023-05-16T05:30:15.560Z,0.60
2023-05-16T05:31:19.170Z,0.60
2023-05-16T05:32:23.179Z,0.70
2023-05-16T05:33:28.777Z,0.80
2023-05-16T05:34:33.552Z,0.60
2023-05-16T05:35:36.176Z,0.60
2023-05-16T05:36:40.645Z,0.60
2023-05-16T05:37:43.238Z,0.70
2023-05-16T05:38:47.824Z,0.60
2023-05-16T05:39:52.142Z,0.60
2023-05-16T05:40:56.065Z,0.60
2023-05-16T05:41:59.210Z,0.60
2023-05-16T05:43:03.266Z,0.60
2023-05-16T05:44:07.247Z,0.60
2023-05-16T05:45:14.840Z,0.80
2023-05-16T05:46:19.291Z,0.60
2023-05-16T05:47:23.388Z,0.60
2023-05-16T05:48:26.647Z,0.60
2023-05-16T05:49:32.135Z,0.70
2023-05-16T05:50:35.164Z,0.68
2023-05-16T05:51:39.459Z,0.63
2023-05-16T05:52:43.153Z,0.57
2023-05-16T05:53:47.264Z,0.63
2023-05-16T05:54:51.651Z,0.70
2023-05-16T05:55:55.680Z,0.70
2023-05-16T05:57:00.478Z,0.60
2023-05-16T05:58:05.667Z,0.60
2023-05-16T05:59:11.088Z,0.70
2023-05-16T06:00:15.525Z,0.70
2023-05-16T06:01:21.428Z,0.70
2023-05-16T06:02:25.544Z,0.60
2023-05-16T06:03:30.072Z,0.70
2023-05-16T06:04:33.233Z,0.60
2023-05-16T06:05:37.516Z,0.65
2023-05-16T06:06:41.890Z,0.60
2023-05-16T06:07:44.696Z,0.60
2023-05-16T06:08:49.031Z,0.60
2023-05-16T06:09:53.284Z,0.60
2023-05-16T06:10:57.138Z,0.63
2023-05-16T06:12:00.653Z,0.90
2023-05-16T06:13:04.728Z,0.70
2023-05-16T06:14:07.526Z,0.60
2023-05-16T06:15:12.050Z,0.70
2023-05-16T06:16:14.968Z,0.70
2023-05-16T06:17:18.958Z,0.80
2023-05-16T06:18:23.328Z,0.70
2023-05-16T06:19:28.253Z,0.77
2023-05-16T06:20:35.072Z,0.70
2023-05-16T06:21:42.036Z,0.70
2023-05-16T06:22:47.074Z,0.60
2023-05-16T06:23:52.139Z,0.80
2023-05-16T06:24:57.849Z,0.70
2023-05-16T06:26:03.810Z,0.90
2023-05-16T06:27:08.206Z,0.70
2023-05-16T06:28:12.970Z,0.80
2023-05-16T06:29:18.039Z,0.70
2023-05-16T06:30:23.601Z,0.88
2023-05-16T06:31:27.435Z,0.93
2023-05-16T06:32:34.216Z,1.00
2023-05-16T06:33:39.662Z,1.05
2023-05-16T06:34:44.436Z,0.98
2023-05-16T06:35:48.893Z,0.70
2023-05-16T06:36:53.569Z,1.02
2023-05-16T06:37:56.282Z,0.80
2023-05-16T06:39:00.450Z,0.85
2023-05-16T06:40:07.073Z,2.08
2023-05-16T06:41:11.158Z,0.98
2023-05-16T06:42:13.936Z,0.80
2023-05-16T06:43:18.325Z,0.90
2023-05-16T06:44:22.361Z,0.93
2023-05-16T06:45:26.595Z,0.80
2023-05-16T06:46:29.781Z,1.00
2023-05-16T06:47:34.160Z,0.70
2023-05-16T06:48:37.803Z,1.00
2023-05-16T06:49:41.535Z,0.90
2023-05-16T06:50:48.246Z,0.70
2023-05-16T06:51:52.404Z,0.70
2023-05-16T06:52:56.110Z,0.70
2023-05-16T06:53:59.964Z,0.80
2023-05-16T06:55:06.810Z,0.70
2023-05-16T06:56:09.716Z,0.80
2023-05-16T06:57:14.884Z,0.70
2023-05-16T06:58:19.024Z,0.80
2023-05-16T06:59:23.015Z,0.98
2023-05-16T07:00:27.643Z,0.80
2023-05-16T07:01:30.565Z,1.00
2023-05-16T07:02:34.677Z,0.77
2023-05-16T07:03:37.871Z,0.80
2023-05-16T07:04:43.200Z,1.17
2023-05-16T07:05:46.421Z,0.70
2023-05-16T07:06:50.547Z,0.88
2023-05-16T07:07:53.562Z,0.60
2023-05-16T07:08:57.613Z,0.70
2023-05-16T07:10:01.995Z,0.90
2023-05-16T07:11:07.088Z,0.70
2023-05-16T07:12:11.344Z,0.85
2023-05-16T07:13:16.325Z,1.15
2023-05-16T07:14:19.311Z,0.73
2023-05-16T07:15:23.567Z,0.70
2023-05-16T07:16:28.706Z,0.80
2023-05-16T07:17:33.255Z,0.82
2023-05-16T07:18:37.816Z,0.70
2023-05-16T07:19:42.205Z,0.60
2023-05-16T07:20:46.314Z,0.60
2023-05-16T07:21:49.806Z,0.77
2023-05-16T07:22:53.856Z,0.65
2023-05-16T07:23:57.032Z,0.70
2023-05-16T07:25:01.740Z,0.85
2023-05-16T07:26:06.713Z,0.70
2023-05-16T07:27:10.881Z,0.90
2023-05-16T07:28:15.577Z,0.90
2023-05-16T07:29:19.427Z,0.80
2023-05-16T07:30:23.972Z,0.70
2023-05-16T07:31:28.304Z,0.60
2023-05-16T07:32:31.924Z,0.80
2023-05-16T07:33:36.134Z,0.80
2023-05-16T07:34:39.861Z,1.10
2023-05-16T07:35:43.140Z,0.70
2023-05-16T07:36:46.911Z,0.70
2023-05-16T07:37:49.894Z,0.80
2023-05-16T07:38:53.383Z,1.10
2023-05-16T07:39:56.948Z,0.80
2023-05-16T07:41:00.725Z,0.80
2023-05-16T07:42:05.890Z,0.88
2023-05-16T07:43:10.088Z,1.42
2023-05-16T07:44:14.064Z,1.05
2023-05-16T07:45:19.419Z,0.60
2023-05-16T07:46:23.610Z,0.70
2023-05-16T07:47:27.278Z,0.80
2023-05-16T07:48:31.548Z,0.70
2023-05-16T07:49:35.826Z,0.80
2023-05-16T07:50:38.935Z,0.70
2023-05-16T07:51:43.027Z,0.70
2023-05-16T07:52:45.978Z,0.80
2023-05-16T07:53:49.879Z,0.60
2023-05-16T07:54:52.824Z,0.70
2023-05-16T07:55:57.060Z,0.70
2023-05-16T07:57:01.628Z,0.77
2023-05-16T07:58:06.754Z,1.00
2023-05-16T07:59:10.394Z,0.88
2023-05-16T08:00:15.012Z,0.80
2023-05-16T08:01:19.323Z,0.90
2023-05-16T08:02:25.974Z,0.85
2023-05-16T08:03:29.958Z,0.88
2023-05-16T08:04:33.325Z,0.80
2023-05-16T08:05:37.142Z,0.88
2023-05-16T08:06:41.013Z,0.70
2023-05-16T08:07:44.838Z,0.80
2023-05-16T08:08:48.503Z,0.82
2023-05-16T08:09:52.097Z,0.98
2023-05-16T08:10:56.005Z,1.00
2023-05-16T08:12:03.559Z,0.80
2023-05-16T08:13:10.303Z,0.88
2023-05-16T08:14:14.622Z,0.93
2023-05-16T08:15:18.399Z,0.90
2023-05-16T08:16:21.751Z,1.20
2023-05-16T08:17:25.892Z,1.40
2023-05-16T08:18:28.812Z,0.90
2023-05-16T08:19:33.204Z,0.90
2023-05-16T08:20:36.702Z,1.00
2023-05-16T08:21:40.907Z,1.00
2023-05-16T08:22:45.106Z,0.80
2023-05-16T08:23:49.471Z,0.90
2023-05-16T08:24:52.214Z,1.00
2023-05-16T08:25:55.843Z,0.90
2023-05-16T08:26:58.734Z,1.10
2023-05-16T08:28:03.406Z,1.10
2023-05-16T08:29:09.195Z,1.00
2023-05-16T08:30:13.504Z,1.58
2023-05-16T08:31:17.707Z,1.30
2023-05-16T08:32:20.572Z,1.02
2023-05-16T08:33:24.753Z,0.95
2023-05-16T08:34:27.880Z,1.10
2023-05-16T08:35:31.696Z,1.08
2023-05-16T08:36:36.682Z,1.08
2023-05-16T08:37:40.508Z,1.00
2023-05-16T08:38:43.569Z,0.88
2023-05-16T08:39:47.731Z,1.13
2023-05-16T08:40:50.984Z,1.80
2023-05-16T08:41:54.831Z,1.25
2023-05-16T08:43:00.065Z,1.00
2023-05-16T08:44:03.633Z,1.10
2023-05-16T08:45:10.383Z,1.00
2023-05-16T08:46:13.642Z,1.17
2023-05-16T08:47:22.233Z,0.90
2023-05-16T08:48:29.058Z,0.90
2023-05-16T08:49:33.844Z,3.47
2023-05-16T08:50:38.163Z,1.98
2023-05-16T08:51:42.452Z,0.90
2023-05-16T08:52:51.640Z,0.90
2023-05-16T08:54:03.235Z,1.20
2023-05-16T08:55:11.719Z,1.02
2023-05-16T08:56:18.013Z,0.90
2023-05-16T08:57:22.198Z,0.88
2023-05-16T08:58:26.940Z,0.80
2023-05-16T08:59:31.498Z,0.90
2023-05-16T09:00:36.365Z,1.10
2023-05-16T09:01:40.697Z,1.00
2023-05-16T09:02:44.931Z,0.85
2023-05-16T09:03:50.071Z,0.85
2023-05-16T09:04:55.968Z,0.90
2023-05-16T09:06:00.198Z,0.80
2023-05-16T09:07:05.604Z,0.88
2023-05-16T09:08:08.563Z,0.90
2023-05-16T09:09:14.698Z,0.90
2023-05-16T09:10:19.371Z,0.80
2023-05-16T09:11:22.468Z,0.88
2023-05-16T09:12:27.485Z,1.42
2023-05-16T09:13:30.496Z,1.10
2023-05-16T09:14:35.585Z,1.08
2023-05-16T09:15:41.282Z,0.80
2023-05-16T09:16:46.826Z,0.80
2023-05-16T09:17:50.996Z,0.80
2023-05-16T09:18:57.370Z,0.90
2023-05-16T09:20:00.937Z,0.70
2023-05-16T09:21:05.773Z,1.00
2023-05-16T09:22:11.563Z,0.90
2023-05-16T09:23:15.710Z,0.80
2023-05-16T09:24:27.037Z,0.80
2023-05-16T09:25:32.937Z,0.60
2023-05-16T09:26:37.766Z,0.80
2023-05-16T09:27:42.614Z,0.75
2023-05-16T09:28:46.484Z,1.57
2023-05-16T09:29:52.355Z,0.68
2023-05-16T09:30:59.552Z,1.33
2023-05-16T09:32:10.371Z,0.80
2023-05-16T09:33:15.778Z,0.80
2023-05-16T09:34:24.548Z,0.70
2023-05-16T09:35:43.002Z,0.73
2023-05-16T09:36:48.653Z,0.80
2023-05-16T09:37:53.458Z,0.77
2023-05-16T09:38:57.503Z,0.73
2023-05-16T09:40:01.200Z,0.83
2023-05-16T09:41:05.442Z,0.70
2023-05-16T09:42:12.977Z,0.73
2023-05-16T09:43:18.660Z,0.80
2023-05-16T09:44:22.978Z,0.77
2023-05-16T09:45:28.302Z,0.70
2023-05-16T09:46:36.464Z,0.70
2023-05-16T09:47:46.339Z,0.77
2023-05-16T09:48:50.675Z,0.70
2023-05-16T09:49:54.428Z,0.80
2023-05-16T09:51:03.633Z,0.80
2023-05-16T09:52:07.769Z,0.70
2023-05-16T09:53:10.760Z,0.80
2023-05-16T09:54:15.167Z,0.80
2023-05-16T09:55:18.609Z,0.73
2023-05-16T09:56:22.971Z,1.10
2023-05-16T09:57:27.274Z,0.80
2023-05-16T09:58:33.163Z,0.98
2023-05-16T09:59:41.024Z,0.88
2023-05-16T10:00:43.848Z,0.75
2023-05-16T10:01:51.672Z,0.90
2023-05-16T10:02:58.397Z,0.90
2023-05-16T10:04:02.514Z,0.90
2023-05-16T10:05:06.189Z,0.80
2023-05-16T10:06:10.613Z,1.00
2023-05-16T10:07:16.078Z,0.80
2023-05-16T10:08:22.647Z,0.80
2023-05-16T10:09:26.695Z,0.80
2023-05-16T10:10:31.720Z,0.90
2023-05-16T10:11:36.087Z,0.90
2023-05-16T10:12:40.942Z,0.87
2023-05-16T10:13:50.609Z,0.85
2023-05-16T10:14:54.788Z,0.70
2023-05-16T10:16:00.529Z,0.87
2023-05-16T10:17:07.952Z,0.90
2023-05-16T10:18:13.534Z,0.97
2023-05-16T10:19:18.655Z,1.00
2023-05-16T10:20:21.974Z,0.80
2023-05-16T10:21:27.836Z,0.90
2023-05-16T10:22:36.129Z,1.03
2023-05-16T10:23:42.765Z,1.00
2023-05-16T10:24:53.886Z,0.95
2023-05-16T10:25:59.508Z,1.00
2023-05-16T10:27:03.690Z,0.83
2023-05-16T10:28:10.648Z,0.90
2023-05-16T10:29:16.893Z,0.80
2023-05-16T10:30:20.715Z,1.00
2023-05-16T10:31:25.992Z,0.77
2023-05-16T10:32:31.084Z,0.90
2023-05-16T10:33:39.202Z,1.00
2023-05-16T10:34:45.292Z,0.87
2023-05-16T10:35:50.043Z,0.90
2023-05-16T10:36:54.819Z,1.00
2023-05-16T10:37:59.976Z,0.93
2023-05-16T10:39:06.069Z,0.80
2023-05-16T10:40:10.179Z,0.80
2023-05-16T10:41:15.252Z,1.10
2023-05-16T10:42:20.874Z,0.90
2023-05-16T10:43:27.486Z,0.93
2023-05-16T10:44:34.841Z,0.80
2023-05-16T10:45:43.238Z,0.83
2023-05-16T10:46:49.305Z,0.80
2023-05-16T10:47:54.801Z,1.00
2023-05-16T10:48:59.162Z,0.83
2023-05-16T10:50:03.508Z,1.17
2023-05-16T10:51:37.439Z,1.00
2023-05-16T10:52:40.532Z,1.07
2023-05-16T10:53:45.943Z,1.20
2023-05-16T10:54:52.070Z,0.70
2023-05-16T10:56:13.495Z,0.60
2023-05-16T10:57:22.160Z,0.70
2023-05-16T10:58:26.423Z,0.73
2023-05-16T10:59:30.790Z,0.80
2023-05-16T11:00:33.443Z,0.67
2023-05-16T11:01:38.150Z,0.73
2023-05-16T11:02:42.465Z,0.70
2023-05-16T11:04:10.496Z,0.73
2023-05-16T11:05:19.207Z,0.80
2023-05-16T11:06:24.822Z,0.70
2023-05-16T11:07:34.614Z,0.80
2023-05-16T11:08:37.417Z,0.70
2023-05-16T11:09:45.910Z,0.70
2023-05-16T11:10:50.119Z,0.90
2023-05-16T11:11:59.731Z,1.27
2023-05-16T11:13:10.339Z,0.70
2023-05-16T11:14:23.527Z,0.67
2023-05-16T11:15:29.937Z,0.70
2023-05-16T11:16:35.151Z,0.77
2023-05-16T11:17:44.081Z,0.70
2023-05-16T11:18:52.579Z,0.80
2023-05-16T11:20:00.279Z,0.70
2023-05-16T11:21:05.964Z,0.60
2023-05-16T11:22:10.484Z,0.80
2023-05-16T11:23:21.542Z,0.70
2023-05-16T11:24:32.840Z,0.67
2023-05-16T11:25:41.307Z,0.83
2023-05-16T11:26:44.318Z,0.80
2023-05-16T11:27:49.318Z,1.00
2023-05-16T11:28:55.805Z,0.70
2023-05-16T11:30:12.164Z,0.80
2023-05-16T11:31:17.374Z,0.70
2023-05-16T11:32:22.148Z,0.80
2023-05-16T11:33:26.201Z,0.77
2023-05-16T11:34:30.065Z,0.90
2023-05-16T11:35:35.149Z,0.90
2023-05-16T11:36:41.151Z,0.80
2023-05-16T11:37:45.677Z,0.77
2023-05-16T11:38:48.721Z,1.00
2023-05-16T11:39:52.849Z,0.97
2023-05-16T11:41:01.888Z,1.13
2023-05-16T11:42:05.960Z,0.83
2023-05-16T11:43:09.777Z,0.80
2023-05-16T11:44:12.784Z,0.90
2023-05-16T11:45:19.300Z,0.87
2023-05-16T11:46:23.517Z,0.90
2023-05-16T11:47:28.217Z,0.80
2023-05-16T11:48:36.676Z,0.97
2023-05-16T11:49:41.800Z,0.80
2023-05-16T11:50:45.913Z,0.87
2023-05-16T11:51:49.994Z,0.80
2023-05-16T11:52:58.079Z,1.00
2023-05-16T11:54:05.344Z,0.90
2023-05-16T11:55:11.372Z,1.00
2023-05-16T11:56:15.252Z,1.00
2023-05-16T11:57:19.871Z,1.40
2023-05-16T11:58:24.167Z,1.27
2023-05-16T11:59:28.064Z,1.47
2023-05-16T12:00:31.221Z,1.37
2023-05-16T12:01:37.553Z,2.27
2023-05-16T12:02:40.438Z,1.60
2023-05-16T12:03:44.534Z,1.77
2023-05-16T12:04:50.687Z,1.23
2023-05-16T12:05:57.515Z,1.13
2023-05-16T12:07:01.850Z,1.20
2023-05-16T12:08:06.922Z,1.00
2023-05-16T12:09:18.181Z,0.70
2023-05-16T12:10:23.213Z,1.00
2023-05-16T12:11:26.245Z,1.30
2023-05-16T12:12:31.368Z,1.00
2023-05-16T12:13:35.724Z,1.07
2023-05-16T12:14:39.830Z,1.30
2023-05-16T12:15:43.517Z,1.00
2023-05-16T12:16:49.553Z,0.87
2023-05-16T12:17:53.891Z,0.80
2023-05-16T12:18:58.080Z,0.80
2023-05-16T12:20:02.437Z,0.73
2023-05-16T12:21:08.193Z,0.80
2023-05-16T12:22:18.854Z,0.80
2023-05-16T12:23:22.782Z,0.97
2023-05-16T12:24:32.400Z,1.00
2023-05-16T12:25:38.017Z,0.90
2023-05-16T12:26:44.828Z,1.00
2023-05-16T12:27:47.601Z,1.00
2023-05-16T12:28:57.792Z,0.90
2023-05-16T12:30:01.902Z,0.87
2023-05-16T12:31:06.689Z,0.90
2023-05-16T12:32:11.987Z,0.90
2023-05-16T12:33:17.389Z,0.80
2023-05-16T12:34:23.488Z,0.73
2023-05-16T12:35:31.101Z,0.97
2023-05-16T12:36:37.115Z,0.90
2023-05-16T12:37:39.796Z,1.00
2023-05-16T12:38:47.853Z,0.90
2023-05-16T12:39:53.090Z,0.80
2023-05-16T12:41:00.583Z,1.00
2023-05-16T12:42:09.765Z,0.80
2023-05-16T12:43:17.966Z,0.70
2023-05-16T12:44:23.763Z,0.90
2023-05-16T12:45:28.437Z,0.97
2023-05-16T12:46:33.516Z,0.73
2023-05-16T12:47:39.473Z,0.73
2023-05-16T12:48:44.481Z,1.07
2023-05-16T12:49:48.345Z,0.70
2023-05-16T12:50:53.646Z,0.77
2023-05-16T12:52:06.105Z,0.73
2023-05-16T12:53:14.212Z,0.80
2023-05-16T12:54:18.796Z,0.90
2023-05-16T12:55:24.441Z,0.90
2023-05-16T12:56:28.998Z,0.80
2023-05-16T12:57:35.099Z,1.10
2023-05-16T12:58:42.077Z,0.80
2023-05-16T12:59:46.274Z,0.73
2023-05-16T13:00:50.394Z,0.90
2023-05-16T13:01:53.311Z,0.83
2023-05-16T13:02:57.378Z,0.70
2023-05-16T13:04:02.445Z,0.73
2023-05-16T13:05:07.520Z,0.70
2023-05-16T13:06:11.223Z,0.70
2023-05-16T13:07:17.830Z,0.70
2023-05-16T13:08:22.235Z,0.70
2023-05-16T13:09:28.377Z,0.77
2023-05-16T13:10:36.470Z,0.80
2023-05-16T13:11:40.587Z,0.70
2023-05-16T13:12:43.574Z,0.70
2023-05-16T13:13:47.451Z,0.90
2023-05-16T13:14:50.667Z,0.70
2023-05-16T13:15:55.604Z,0.93
2023-05-16T13:16:59.693Z,0.73
2023-05-16T13:18:03.080Z,0.87
2023-05-16T13:19:08.167Z,0.90
2023-05-16T13:20:15.349Z,1.10
2023-05-16T13:21:19.585Z,1.00
2023-05-16T13:22:24.702Z,1.10
2023-05-16T13:23:28.809Z,0.90
2023-05-16T13:24:33.732Z,0.90
2023-05-16T13:25:37.463Z,1.00
2023-05-16T13:26:41.984Z,1.10
2023-05-16T13:27:46.501Z,0.80
2023-05-16T13:28:53.313Z,0.93
2023-05-16T13:29:57.158Z,1.00
2023-05-16T13:31:00.838Z,0.90
2023-05-16T13:32:05.206Z,1.07
2023-05-16T13:33:09.765Z,0.90
2023-05-16T13:34:12.615Z,1.00
2023-05-16T13:35:16.409Z,1.03
2023-05-16T13:36:19.814Z,1.40
2023-05-16T13:37:26.337Z,1.00
2023-05-16T13:38:31.562Z,0.90
2023-05-16T13:39:35.362Z,0.87
2023-05-16T13:40:41.156Z,1.20
2023-05-16T13:41:45.935Z,0.80
2023-05-16T13:42:51.830Z,0.77
2023-05-16T13:43:56.716Z,1.10
2023-05-16T13:45:01.612Z,0.80
2023-05-16T13:46:04.645Z,0.80
2023-05-16T13:47:10.709Z,0.87
2023-05-16T13:48:14.040Z,0.90
2023-05-16T13:49:18.106Z,0.80
2023-05-16T13:50:22.233Z,0.83
2023-05-16T13:51:28.596Z,0.73
2023-05-16T13:52:36.408Z,0.90
2023-05-16T13:53:41.012Z,0.83
2023-05-16T13:54:45.052Z,0.87
2023-05-16T13:55:50.128Z,0.90
2023-05-16T13:56:53.747Z,0.80
2023-05-16T13:57:58.594Z,1.00
2023-05-16T13:59:06.538Z,0.83
2023-05-16T14:01:20.202Z,0.70
2023-05-16T14:02:26.053Z,0.97
2023-05-16T14:03:30.715Z,0.90
2023-05-16T14:04:33.668Z,0.80
2023-05-16T14:05:38.251Z,0.80
2023-05-16T14:06:41.518Z,0.80
2023-05-16T14:07:47.598Z,0.80
2023-05-16T14:08:52.870Z,0.70
2023-05-16T14:09:56.980Z,0.80
2023-05-16T14:11:00.354Z,0.80
2023-05-16T14:12:07.508Z,0.80
2023-05-16T14:13:12.337Z,0.80
2023-05-16T14:14:17.553Z,0.80
2023-05-16T14:15:21.545Z,1.07
2023-05-16T14:16:25.156Z,1.17
2023-05-16T14:17:29.103Z,0.83
2023-05-16T14:18:32.525Z,0.80
2023-05-16T14:19:37.415Z,0.77
2023-05-16T14:20:41.564Z,0.90
2023-05-16T14:21:46.045Z,0.90
2023-05-16T14:22:51.208Z,0.90
2023-05-16T14:23:57.024Z,0.80
2023-05-16T14:25:01.670Z,1.10
2023-05-16T14:26:07.700Z,0.90
2023-05-16T14:27:13.450Z,0.93
2023-05-16T14:28:17.283Z,1.03